Flight Track Log - Related Links

Times and Time Zones

All times are in EDT time to prevent confusion due to time zone crossing. See the EJA372P flight status page for this flight to view local times or setup timezone preferences in your user account.

Time Position Orientation Groundspeed Altitude Reporting Facility
EDT Latitude Longitude Course Direction KTS MPH feet Rate Location/Type
Tue 03:08:45 AM 41.4131 -81.8397 94° East 177 204 1,900  Level Cleveland Center
Tue 03:09:33 AM 41.4100 -81.7836 94° East 214 246 5,100 3,614 Climbing Cleveland Center
Tue 03:10:08 AM 41.3872 -81.7525 134° Southeast 252 290 6,900 3,411 Climbing Cleveland Center
Tue 03:11:08 AM 41.3161 -81.7808 197° South 276 318 10,500 3,350 Climbing Cleveland Center
Tue 03:12:08 AM 41.2256 -81.8308 203° Southwest 326 375 13,600 2,926 Climbing Cleveland Center
Tue 03:13:09 AM 41.1331 -81.8703 198° South 368 423 16,400 2,579 Climbing Cleveland Center
Tue 03:14:09 AM 41.0428 -81.9378 209° Southwest 374 430 18,800 2,650 Climbing Cleveland Center
Tue 03:15:09 AM 40.9314 -82.0183 209° Southwest 381 438 21,700 2,500 Climbing Cleveland Center
Tue 03:16:09 AM 40.8328 -82.0906 209° Southwest 400 460 23,800 2,000 Climbing Cleveland Center
Tue 03:17:09 AM 40.7439 -82.1561 209° Southwest 416 479 25,700 1,950 Climbing Cleveland Center
Tue 03:18:09 AM 40.6406 -82.2319 209° Southwest 424 488 27,700 2,000 Climbing Cleveland Center
Tue 03:19:09 AM 40.5358 -82.3069 209° Southwest 428 493 29,700 2,000 Climbing Cleveland Center
Tue 03:20:09 AM 40.4311 -82.3808 208° Southwest 427 491 31,700 1,150 Climbing Cleveland Center
Tue 03:21:09 AM 40.3267 -82.4592 210° Southwest 431 496 32,000 150 Climbing Cleveland Center
Tue 03:22:09 AM 40.2186 -82.5372 209° Southwest 441 507 32,000  Level Cleveland Center
Tue 03:23:09 AM 40.1042 -82.5872 198° South 437 503 32,000  Level Cleveland Center
Tue 03:24:09 AM 39.9803 -82.5983 184° South 442 509 32,000  Level Cleveland Center
Tue 03:25:09 AM 39.8542 -82.6064 183° South 449 517 32,000  Level Cleveland Center
Tue 03:26:10 AM 39.7236 -82.6161 183° South 465 535 32,000  Level Cleveland Center
Tue 03:27:10 AM 39.5886 -82.6250 183° South 480 552 32,000  Level Cleveland Center
Tue 03:28:10 AM 39.4519 -82.6336 183° South 492 566 32,000  Level Cleveland Center
Tue 03:29:10 AM 39.3164 -82.6431 183° South 488 562 32,000  Level Cleveland Center
Tue 03:30:10 AM 39.1806 -82.6508 183° South 489 563 32,000  Level Cleveland Center
Tue 03:31:39 AM 38.9844 -82.6650 183° South 488 562 32,000  Level Indianapolis Center
Tue 03:32:39 AM 38.8492 -82.6747 183° South 487 560 32,000  Level Indianapolis Center
Tue 03:33:40 AM 38.7139 -82.6842 183° South 488 562 32,000  Level Indianapolis Center
Tue 03:34:40 AM 38.5689 -82.6928 183° South 491 565 32,000  Level Indianapolis Center
Tue 03:35:40 AM 38.4336 -82.7022 183° South 488 562 32,000  Level Indianapolis Center
Tue 03:36:40 AM 38.2969 -82.7106 183° South 490 564 32,000  Level Indianapolis Center
Tue 03:37:40 AM 38.1597 -82.7192 183° South 492 566 32,000  Level Indianapolis Center
Tue 03:38:41 AM 38.0247 -82.7300 184° South 485 558 32,000  Level Indianapolis Center
Tue 03:39:41 AM 37.8856 -82.7386 183° South 495 570 32,000  Level Indianapolis Center
Tue 03:40:41 AM 37.7458 -82.7489 183° South 501 577 32,000  Level Indianapolis Center
Tue 03:41:41 AM 37.6086 -82.7725 188° South 498 573 32,000  Level Indianapolis Center
Tue 03:42:41 AM 37.4692 -82.7936 187° South 502 578 32,000  Level Indianapolis Center
Tue 03:43:42 AM 37.3311 -82.8158 187° South 500 575 32,000  Level Indianapolis Center
Tue 03:44:42 AM 37.1933 -82.8372 187° South 498 573 32,000  Level Indianapolis Center
Tue 03:45:42 AM 37.0556 -82.8586 187° South 497 572 32,000  Level Indianapolis Center
Tue 03:46:42 AM 36.9194 -82.8789 187° South 500 575 32,000  Level Indianapolis Center
Tue 03:47:43 AM 36.7739 -82.9247 194° South 486 559 32,000  Level Indianapolis Center
Tue 03:48:43 AM 36.6453 -82.9742 197° South 482 555 32,000  Level Indianapolis Center
Tue 03:49:43 AM 36.5164 -83.0231 197° South 482 555 32,000  Level Indianapolis Center
Tue 03:50:43 AM 36.3872 -83.0719 197° South 484 557 32,000  Level Indianapolis Center
Tue 03:52:00 AM 36.2479 -83.1264 197° South  Level FlightAware Approximate
Tue 03:54:44 AM 35.8725 -83.2678 195° South 479 551 32,000  Level Indianapolis Center
Tue 03:55:33 AM 35.7828 -83.3017 197° South 481 554 32,000  Level Atlanta Center
Tue 03:56:33 AM 35.6558 -83.3486 197° South 481 554 32,000  Level Atlanta Center
Tue 03:57:33 AM 35.5331 -83.3983 198° South 476 548 32,000 -650 Level Atlanta Center
Tue 03:58:33 AM 35.4100 -83.4425 196° South 476 548 30,700 -1,650 Descending Atlanta Center
Tue 03:59:00 AM 35.4866 -83.4132 196° South  Level FlightAware Approximate
Tue 03:59:33 AM 35.2872 -83.4892 197° South 476 548 28,700  Level Atlanta Center
Tue 04:00:00 AM 35.3772 -83.4520 195° South  Level FlightAware Approximate
Tue 04:00:33 AM 35.1686 -83.5383 199° South 466 536 26,700  Level Atlanta Center
Tue 04:01:33 AM 35.0539 -83.5794 196° South 450 518 24,700 -2,000 Descending Atlanta Center
Tue 04:02:33 AM 34.9392 -83.6181 195° South 439 505 22,700 -2,000 Descending Atlanta Center
Tue 04:03:33 AM 34.8289 -83.6542 195° South 423 487 20,700 -2,000 Descending Atlanta Center
Tue 04:04:33 AM 34.7206 -83.6975 198° South 418 481 18,700 -1,900 Descending Atlanta Center
Tue 04:05:33 AM 34.6142 -83.7333 195° South 407 468 16,900 -1,950 Descending Atlanta Center
Tue 04:06:33 AM 34.5097 -83.7717 197° South 398 458 14,800 -2,050 Descending Atlanta Center
Tue 04:07:33 AM 34.4139 -83.8047 196° South 377 434 12,800 -2,300 Descending Atlanta Center
Tue 04:08:33 AM 34.3181 -83.8400 197° South 348 400 10,200 -2,450 Descending Atlanta Center
Tue 04:09:33 AM 34.2344 -83.8553 189° South 322 371 7,900 -2,200 Descending Atlanta Center
Tue 04:10:33 AM 34.1594 -83.8581 182° South 292 336 5,800 -1,950 Descending Atlanta Center
Tue 04:11:33 AM 34.0906 -83.8606 182° South 266 306 4,000 -900 Descending Atlanta Center
Tue 04:12:33 AM 34.0258 -83.8633 182° South 240 276 4,000 500 Level Atlanta Center
Tue 04:13:33 AM 33.9569 -83.8711 185° South 240 276 5,000 500 Climbing Atlanta Center
Tue 04:14:33 AM 33.8903 -83.8761 184° South 240 276 5,000  Level Atlanta Center
Tue 04:15:33 AM 33.8358 -83.8811 184° South 240 276 5,000  Level Atlanta Center
Tue 04:18:00 AM 33.9667 -83.9500 333° Northwest  Level FlightAware Approximate
Tue 04:25:00 AM 33.9781 -83.9624 333° Northwest  Level Estimated
Tue 04:26:00 AM 33.9781 -83.9624 333° Northwest  Level Estimated
Tue 04:27:00 AM 33.9781 -83.9624 333° Northwest  Level Estimated
Tue 04:28:00 AM 33.9781 -83.9624 333° Northwest  Level Estimated
Tue 04:29:00 AM 33.9781 -83.9624 333° Northwest  Level Estimated
Tue 04:30:00 AM 33.9781 -83.9624 333° Northwest  Level Estimated
Tue 04:31:00 AM 33.9781 -83.9624 333° Northwest  Level Estimated
Tue 04:32:00 AM 33.9781 -83.9624 333° Northwest  Level Estimated
Tue 04:33:00 AM 33.9781 -83.9624 333° Northwest  Level Estimated

Login

Don't have an account? Register now (free) for customized features, flight alerts, and more!